ADDS METAR Data INFO
IDs: Format: Raw Decoded Include TAF

Data at: 0139 UTC 26 Feb 2018

KBAM 260135Z AUTO 25012KT 10SM SCT060 SCT070 OVC090 01/M05 A3005 RMK AO1
KBAM 260115Z AUTO 25013KT 10SM BKN060 OVC075 01/M05 A3006 RMK AO1
KBAM 260055Z AUTO 25012KT 10SM OVC065 01/M06 A3007 RMK AO1
KBAM 260035Z AUTO 25007KT 10SM OVC065 02/M06 A3008 RMK AO1
KBAM 260015Z AUTO 23014KT 10SM OVC065 02/M06 A3009 RMK AO1
KBAM 252355Z AUTO 24016G22KT 10SM OVC065 02/M06 A3009 RMK AO1
KBAM 252335Z AUTO 23009KT 10SM BKN060 OVC070 02/M06 A3010 RMK AO1
KBAM 252315Z AUTO 23010KT 10SM SCT060 OVC070 02/M06 A3012 RMK AO1
KBAM 252255Z AUTO 23013KT 10SM BKN050 SCT060 OVC070 02/M07 A3012 RMK AO1
KBAM 252235Z AUTO 23013KT 10SM SCT050 OVC070 02/M07 A3013 RMK AO1
KBAM 252215Z AUTO 23015KT 10SM OVC080 01/M07 A3014 RMK AO1
KBAM 252155Z AUTO 23016G22KT 10SM SCT060 OVC080 01/M08 A3014 RMK AO1
KBAM 252135Z AUTO 23016G21KT 10SM BKN060 BKN080 02/M08 A3014 RMK AO1
KBAM 252115Z AUTO 23015G19KT 10SM SCT060 02/M08 A3015 RMK AO1
KBAM 252055Z AUTO 22013G19KT 10SM SCT065 02/M08 A3016 RMK AO1
KBAM 252035Z AUTO 23012KT 10SM BKN065 02/M08 A3018 RMK AO1
KBAM 252015Z AUTO 23014G18KT 10SM SCT055 01/M07 A3019 RMK AO1
KBAM 251955Z AUTO 24012KT 10SM SCT055 01/M07 A3020 RMK AO1
KBAM 251935Z AUTO 22010KT 200V260 10SM SCT055 01/M07 A3021 RMK AO1
KBAM 251915Z AUTO 19004KT 10SM CLR 00/M08 A3022 RMK AO1
KBAM 251855Z AUTO 19006KT 10SM CLR 00/M08 A3023 RMK AO1
KBAM 251835Z AUTO 17004KT 10SM SCT065 M01/M08 A3023 RMK AO1
KBAM 251815Z AUTO 17003KT 10SM SCT055 BKN065 M02/M09 A3024 RMK AO1
KBAM 251755Z AUTO 17004KT 10SM SCT065 M02/M09 A3024 RMK AO1
KBAM 251735Z AUTO 00000KT 10SM CLR M03/M09 A3024 RMK AO1
KBAM 251715Z AUTO 00000KT 10SM CLR M03/M10 A3024 RMK AO1
KBAM 251655Z AUTO 05003KT 10SM CLR M05/M09 A3024 RMK AO1
KBAM 251635Z AUTO 07006KT 10SM CLR M06/M10 A3024 RMK AO1
KBAM 251615Z AUTO 06003KT 10SM CLR M07/M11 A3023 RMK AO1
KBAM 251555Z AUTO 06003KT 10SM CLR M08/M11 A3022 RMK AO1
KBAM 251535Z AUTO 07006KT M11/M13 A3023 RMK AO1
KBAM 251515Z AUTO 07005KT M14/M16 A3023 RMK AO1
KBAM 251455Z AUTO 07005KT M16/M18 A3023 RMK AO1
KBAM 251435Z AUTO 11006KT M16/M18 A3022 RMK AO1
KBAM 251415Z AUTO 12006KT M15/M17 A3022 RMK AO1
KBAM 251355Z AUTO 09003KT M16/M18 A3023 RMK AO1
KBAM 251335Z AUTO 08004KT M16/M17 A3022 RMK AO1
KBAM 251315Z AUTO 10003KT M16/M18 A3022 RMK AO1
KBAM 251255Z AUTO 13004KT M15/M17 A3021 RMK AO1
KBAM 251235Z AUTO 00000KT M13/M16 A3021 RMK AO1
KBAM 251215Z AUTO 00000KT M12/M15 A3021 RMK AO1
KBAM 251155Z AUTO 00000KT M13/M16 A3021 RMK AO1
KBAM 251135Z AUTO 14003KT M13/M16 A3021 RMK AO1
KBAM 251115Z AUTO 15007KT M14/M16 A3021 RMK AO1
KBAM 251055Z AUTO 19005KT M13/M16 A3022 RMK AO1
KBAM 251035Z AUTO 20004KT BKN050 M13/M16 A3022 RMK AO1
KBAM 251015Z AUTO 24007KT M13/M16 A3022 RMK AO1
KBAM 250955Z AUTO 20005KT CLR M14/M17 A3023 RMK AO1
KBAM 250935Z AUTO 19003KT M14/M16 A3022 RMK AO1
KBAM 250915Z AUTO 17005KT M13/M15 A3023 RMK AO1
KBAM 250855Z AUTO 18004KT M13/M16 A3022 RMK AO1
KBAM 250835Z AUTO 21003KT M12/M13 A3022 RMK AO1
KBAM 250815Z AUTO 19006KT 10SM CLR M12/M14 A3022 RMK AO1
KBAM 250755Z AUTO 24004KT 10SM CLR M11/M12 A3021 RMK AO1
KBAM 250735Z AUTO 22005KT 10SM CLR M11/M12 A3022 RMK AO1
KBAM 250715Z AUTO 00000KT 10SM SCT047 M07/M10 A3020 RMK AO1
KBAM 250655Z AUTO 32004KT 10SM SCT047 BKN055 BKN065 M08/M10 A3020 RMK AO1
KBAM 250635Z AUTO 24005KT 10SM BKN070 BKN075 M07/M10 A3020 RMK AO1
KBAM 250615Z AUTO 24004KT 10SM SCT070 BKN080 M07/M10 A3019 RMK AO1
KBAM 250555Z AUTO 28004KT 10SM SCT033 SCT039 BKN080 M06/M09 A3018 RMK AO1
KBAM 250535Z AUTO 29007KT 10SM SCT039 OVC046 M05/M08 A3017 RMK AO1
KBAM 250515Z AUTO 31005KT 10SM BKN049 OVC065 M03/M08 A3016 RMK AO1
KBAM 250455Z AUTO 35003KT 10SM SCT044 BKN070 OVC075 M03/M08 A3015 RMK AO1
KBAM 250435Z AUTO 31004KT 10SM SCT044 OVC060 M03/M08 A3014 RMK AO1
KBAM 250415Z AUTO 00000KT 10SM SCT038 OVC060 M03/M07 A3013 RMK AO1
KBAM 250355Z AUTO 00000KT 10SM SCT041 BKN060 OVC070 M03/M07 A3013 RMK AO1
KBAM 250335Z AUTO 33004KT 10SM OVC065 M02/M07 A3012 RMK AO1
KBAM 250315Z AUTO 35006KT 10SM SCT044 SCT055 BKN065 M02/M06 A3011 RMK AO1
KBAM 250255Z AUTO 32009KT 10SM SCT048 SCT055 SCT065 M02/M06 A3009 RMK AO1
KBAM 250235Z AUTO 33009KT 10SM SCT080 BKN110 M02/M05 A3008 RMK AO1
KBAM 250215Z AUTO 32012G21KT 10SM SCT047 BKN070 OVC090 M01/M05 A3006 RMK AO1
KBAM 250155Z AUTO 31017G28KT 10SM SCT025 BKN044 OVC060 M01/M05 A3005 RMK AO1
KBAM 250135Z AUTO 26009KT 1 1/4SM BKN006 BKN022 OVC027 M02/M02 A3004 RMK AO1 VIS 1/4V5
KBAM 250115Z AUTO 32018G23KT 10SM SCT012 BKN024 OVC060 M01/M03 A3004 RMK AO1
KBAM 250055Z AUTO 23013G17KT 10SM SCT013 BKN065 OVC085 M01/M03 A2999 RMK AO1
KBAM 250035Z AUTO 23010KT 10SM BKN013 BKN070 OVC095 M01/M03 A3000 RMK AO1
KBAM 250015Z AUTO 22011KT 10SM SCT011 BKN050 OVC085 M01/M03 A3000 RMK AO1
KBAM 242355Z AUTO 24012KT 10SM SCT009 BKN050 OVC065 M01/M03 A3001 RMK AO1
KBAM 242335Z AUTO 23017KT 10SM SCT009 SCT031 OVC050 M01/M03 A3000 RMK AO1
KBAM 242315Z AUTO 24013G19KT 2 1/2SM SCT006 BKN030 OVC048 M01/M03 A3000 RMK AO1
KBAM 242255Z AUTO 24010KT 7SM SCT014 BKN028 OVC038 M01/M04 A3001 RMK AO1
KBAM 242235Z AUTO 25012KT 2SM SCT019 SCT024 OVC031 M01/M04 A3001 RMK AO1
KBAM 242215Z AUTO 24015G23KT 4SM SCT026 BKN034 OVC043 M01/M05 A3000 RMK AO1
KBAM 242155Z AUTO 23018G22KT 10SM SCT025 BKN049 OVC065 00/M06 A2999 RMK AO1
KBAM 242135Z AUTO 25014G19KT 10SM SCT055 OVC075 M01/M06 A2999 RMK AO1
KBAM 242115Z AUTO 25014G19KT 10SM SCT060 OVC075 M01/M06 A3000 RMK AO1
KBAM 242055Z AUTO 23011G14KT 10SM BKN060 OVC070 M01/M06 A3002 RMK AO1
KBAM 242035Z AUTO 26010G18KT 10SM SCT020 SCT050 OVC070 M02/M06 A3003 RMK AO1
KBAM 242015Z AUTO 22018G22KT 2 1/2SM SCT019 BKN050 OVC060 M02/M06 A3003 RMK AO1
KBAM 241955Z AUTO 22014KT 10SM SCT024 OVC050 M01/M08 A3005 RMK AO1
KBAM 241935Z AUTO 23008KT 10SM SCT024 SCT049 OVC060 M02/M08 A3007 RMK AO1
KBAM 241915Z AUTO 22011KT 4SM SCT047 OVC060 M03/M07 A3008 RMK AO1
KBAM 241855Z AUTO 23012KT 7SM SCT028 SCT035 OVC060 M02/M08 A3010 RMK AO1
KBAM 241835Z AUTO 24010KT 4SM SCT024 OVC031 M02/M09 A3011 RMK AO1
KBAM 241815Z AUTO 24011G15KT 10SM BKN028 OVC034 M02/M11 A3012 RMK AO1
KBAM 241755Z AUTO 25010KT 10SM SCT028 OVC034 M03/M11 A3012 RMK AO1
KBAM 241735Z AUTO 23008KT 10SM SCT034 SCT041 OVC050 M04/M10 A3012 RMK AO1
KBAM 241715Z AUTO 21006KT 10SM SCT048 OVC060 M04/M11 A3011 RMK AO1
KBAM 241655Z AUTO 19007KT 10SM BKN060 OVC070 M04/M11 A3013 RMK AO1
KBAM 241635Z AUTO 16007KT 10SM BKN060 OVC070 M05/M11 A3013 RMK AO1
KBAM 241615Z AUTO 16004KT 10SM SCT050 OVC070 M05/M11 A3013 RMK AO1
KBAM 241555Z AUTO 21006KT 10SM OVC050 M05/M11 A3014 RMK AO1
KBAM 241535Z AUTO 18004KT 10SM BKN050 OVC065 M06/M12 A3015 RMK AO1
KBAM 241515Z AUTO 22008KT 10SM BKN050 OVC065 M06/M11 A3014 RMK AO1
KBAM 241455Z AUTO 00000KT 10SM OVC055 M06/M11 A3015 RMK AO1
KBAM 241435Z AUTO 00000KT 10SM OVC055 M06/M11 A3016 RMK AO1
KBAM 241415Z AUTO 18005KT 10SM OVC055 M06/M11 A3016 RMK AO1
KBAM 241355Z AUTO 19005KT 10SM OVC055 M06/M11 A3017 RMK AO1